sensor_id;sensor_type;location;lat;lon;timestamp;P1;durP1;ratioP1;P2;durP2;ratioP2
70929;SDS011;58588;48.102;19.682;2022-07-09T00:00:01;7.80;;;2.47;;
70929;SDS011;58588;48.102;19.682;2022-07-09T00:03:04;6.10;;;2.53;;
70929;SDS011;58588;48.102;19.682;2022-07-09T00:06:06;6.63;;;2.60;;
70929;SDS011;58588;48.102;19.682;2022-07-09T00:09:08;5.57;;;2.38;;
70929;SDS011;58588;48.102;19.682;2022-07-09T00:12:11;6.95;;;2.70;;
70929;SDS011;58588;48.102;19.682;2022-07-09T00:15:13;6.23;;;2.67;;
70929;SDS011;58588;48.102;19.682;2022-07-09T00:18:15;6.30;;;2.77;;
70929;SDS011;58588;48.102;19.682;2022-07-09T00:21:17;5.30;;;2.40;;
70929;SDS011;58588;48.102;19.682;2022-07-09T00:24:19;6.07;;;2.70;;
70929;SDS011;58588;48.102;19.682;2022-07-09T00:27:23;8.35;;;2.40;;
70929;SDS011;58588;48.102;19.682;2022-07-09T00:30:25;7.17;;;2.73;;
70929;SDS011;58588;48.102;19.682;2022-07-09T00:33:27;9.17;;;2.87;;
70929;SDS011;58588;48.102;19.682;2022-07-09T00:36:29;6.10;;;2.45;;
70929;SDS011;58588;48.102;19.682;2022-07-09T00:39:31;5.28;;;2.10;;
70929;SDS011;58588;48.102;19.682;2022-07-09T00:42:34;5.28;;;2.30;;
70929;SDS011;58588;48.102;19.682;2022-07-09T00:45:36;5.70;;;2.40;;
70929;SDS011;58588;48.102;19.682;2022-07-09T00:48:38;5.73;;;2.20;;
70929;SDS011;58588;48.102;19.682;2022-07-09T00:51:40;5.90;;;2.35;;
70929;SDS011;58588;48.102;19.682;2022-07-09T00:54:42;7.88;;;2.50;;
70929;SDS011;58588;48.102;19.682;2022-07-09T00:57:47;5.43;;;2.33;;
70929;SDS011;58588;48.102;19.682;2022-07-09T01:00:49;8.50;;;3.10;;
70929;SDS011;58588;48.102;19.682;2022-07-09T01:03:52;5.93;;;2.30;;
70929;SDS011;58588;48.102;19.682;2022-07-09T01:06:54;6.55;;;2.38;;
70929;SDS011;58588;48.102;19.682;2022-07-09T01:09:58;5.47;;;2.17;;
70929;SDS011;58588;48.102;19.682;2022-07-09T01:13:01;7.60;;;2.65;;
70929;SDS011;58588;48.102;19.682;2022-07-09T01:16:10;7.05;;;2.35;;
70929;SDS011;58588;48.102;19.682;2022-07-09T01:19:13;6.40;;;2.90;;
70929;SDS011;58588;48.102;19.682;2022-07-09T01:22:16;5.88;;;2.10;;
70929;SDS011;58588;48.102;19.682;2022-07-09T01:25:18;5.80;;;2.28;;
70929;SDS011;58588;48.102;19.682;2022-07-09T01:28:21;6.13;;;2.53;;
70929;SDS011;58588;48.102;19.682;2022-07-09T01:31:23;6.57;;;2.40;;
70929;SDS011;58588;48.102;19.682;2022-07-09T01:34:25;6.83;;;2.57;;
70929;SDS011;58588;48.102;19.682;2022-07-09T01:37:28;6.03;;;2.40;;
70929;SDS011;58588;48.102;19.682;2022-07-09T01:40:30;6.30;;;2.38;;
70929;SDS011;58588;48.102;19.682;2022-07-09T01:43:32;6.13;;;2.50;;
70929;SDS011;58588;48.102;19.682;2022-07-09T01:46:34;5.37;;;2.10;;
70929;SDS011;58588;48.102;19.682;2022-07-09T01:49:37;7.47;;;2.30;;
70929;SDS011;58588;48.102;19.682;2022-07-09T01:52:40;9.32;;;2.60;;
70929;SDS011;58588;48.102;19.682;2022-07-09T01:55:42;6.40;;;2.33;;
70929;SDS011;58588;48.102;19.682;2022-07-09T01:58:44;5.60;;;2.42;;
70929;SDS011;58588;48.102;19.682;2022-07-09T02:01:46;6.10;;;2.33;;
70929;SDS011;58588;48.102;19.682;2022-07-09T02:04:48;8.87;;;2.53;;
70929;SDS011;58588;48.102;19.682;2022-07-09T02:07:52;6.45;;;2.75;;
70929;SDS011;58588;48.102;19.682;2022-07-09T02:10:54;9.00;;;2.83;;
70929;SDS011;58588;48.102;19.682;2022-07-09T02:13:57;6.93;;;2.50;;
70929;SDS011;58588;48.102;19.682;2022-07-09T02:16:59;7.30;;;2.50;;
70929;SDS011;58588;48.102;19.682;2022-07-09T02:20:01;6.27;;;2.70;;
70929;SDS011;58588;48.102;19.682;2022-07-09T02:23:04;7.40;;;2.28;;
70929;SDS011;58588;48.102;19.682;2022-07-09T02:26:06;8.88;;;2.42;;
70929;SDS011;58588;48.102;19.682;2022-07-09T02:29:08;4.97;;;2.05;;
70929;SDS011;58588;48.102;19.682;2022-07-09T02:32:11;7.60;;;2.70;;
70929;SDS011;58588;48.102;19.682;2022-07-09T02:35:13;8.17;;;2.43;;
70929;SDS011;58588;48.102;19.682;2022-07-09T02:38:16;9.07;;;2.75;;
70929;SDS011;58588;48.102;19.682;2022-07-09T02:41:18;6.95;;;2.75;;
70929;SDS011;58588;48.102;19.682;2022-07-09T02:44:20;6.15;;;2.28;;
70929;SDS011;58588;48.102;19.682;2022-07-09T02:47:22;6.60;;;2.43;;
70929;SDS011;58588;48.102;19.682;2022-07-09T02:50:24;5.57;;;2.23;;
70929;SDS011;58588;48.102;19.682;2022-07-09T02:53:27;9.02;;;2.20;;
70929;SDS011;58588;48.102;19.682;2022-07-09T02:56:29;7.25;;;2.40;;
70929;SDS011;58588;48.102;19.682;2022-07-09T02:59:31;7.28;;;2.67;;
70929;SDS011;58588;48.102;19.682;2022-07-09T03:02:33;6.47;;;2.60;;
70929;SDS011;58588;48.102;19.682;2022-07-09T03:05:35;9.10;;;2.63;;
70929;SDS011;58588;48.102;19.682;2022-07-09T03:08:38;6.38;;;2.40;;
70929;SDS011;58588;48.102;19.682;2022-07-09T03:11:40;7.28;;;2.70;;
70929;SDS011;58588;48.102;19.682;2022-07-09T03:14:42;6.18;;;2.30;;
70929;SDS011;58588;48.102;19.682;2022-07-09T03:17:44;6.37;;;2.30;;
70929;SDS011;58588;48.102;19.682;2022-07-09T03:20:47;6.43;;;2.43;;
70929;SDS011;58588;48.102;19.682;2022-07-09T03:23:51;7.85;;;2.45;;
70929;SDS011;58588;48.102;19.682;2022-07-09T03:26:53;10.05;;;2.60;;
70929;SDS011;58588;48.102;19.682;2022-07-09T03:29:55;7.05;;;2.90;;
70929;SDS011;58588;48.102;19.682;2022-07-09T03:32:57;8.67;;;2.57;;
70929;SDS011;58588;48.102;19.682;2022-07-09T03:35:59;8.33;;;2.43;;
70929;SDS011;58588;48.102;19.682;2022-07-09T03:39:02;6.93;;;2.72;;
70929;SDS011;58588;48.102;19.682;2022-07-09T03:42:04;7.15;;;2.10;;
70929;SDS011;58588;48.102;19.682;2022-07-09T03:45:08;9.18;;;2.38;;
70929;SDS011;58588;48.102;19.682;2022-07-09T03:48:11;7.83;;;2.40;;
70929;SDS011;58588;48.102;19.682;2022-07-09T03:51:13;7.07;;;2.40;;
70929;SDS011;58588;48.102;19.682;2022-07-09T03:54:16;6.78;;;2.50;;
70929;SDS011;58588;48.102;19.682;2022-07-09T03:57:18;6.25;;;2.40;;
70929;SDS011;58588;48.102;19.682;2022-07-09T04:00:20;7.93;;;2.60;;
70929;SDS011;58588;48.102;19.682;2022-07-09T04:03:22;5.50;;;2.17;;
70929;SDS011;58588;48.102;19.682;2022-07-09T04:06:24;7.20;;;2.73;;
70929;SDS011;58588;48.102;19.682;2022-07-09T04:09:27;9.50;;;2.80;;
70929;SDS011;58588;48.102;19.682;2022-07-09T04:12:29;7.25;;;3.00;;
70929;SDS011;58588;48.102;19.682;2022-07-09T04:15:31;7.35;;;3.03;;
70929;SDS011;58588;48.102;19.682;2022-07-09T04:18:33;9.90;;;3.30;;
70929;SDS011;58588;48.102;19.682;2022-07-09T04:21:35;11.87;;;3.30;;
70929;SDS011;58588;48.102;19.682;2022-07-09T04:24:39;11.50;;;3.63;;
70929;SDS011;58588;48.102;19.682;2022-07-09T04:27:41;9.73;;;3.22;;
70929;SDS011;58588;48.102;19.682;2022-07-09T04:30:43;7.53;;;3.22;;
70929;SDS011;58588;48.102;19.682;2022-07-09T04:33:44;7.53;;;3.20;;
70929;SDS011;58588;48.102;19.682;2022-07-09T04:36:46;8.23;;;3.30;;
70929;SDS011;58588;48.102;19.682;2022-07-09T04:39:51;8.95;;;2.97;;
70929;SDS011;58588;48.102;19.682;2022-07-09T04:42:53;9.40;;;3.03;;
70929;SDS011;58588;48.102;19.682;2022-07-09T04:45:54;6.78;;;3.00;;
70929;SDS011;58588;48.102;19.682;2022-07-09T04:48:57;7.03;;;3.40;;
70929;SDS011;58588;48.102;19.682;2022-07-09T04:51:59;7.07;;;2.90;;
70929;SDS011;58588;48.102;19.682;2022-07-09T04:55:02;7.65;;;3.10;;
70929;SDS011;58588;48.102;19.682;2022-07-09T04:58:05;8.70;;;3.03;;
70929;SDS011;58588;48.102;19.682;2022-07-09T05:01:07;8.50;;;2.75;;
70929;SDS011;58588;48.102;19.682;2022-07-09T05:04:09;7.03;;;2.90;;
70929;SDS011;58588;48.102;19.682;2022-07-09T05:07:11;6.30;;;2.83;;
70929;SDS011;58588;48.102;19.682;2022-07-09T05:10:14;6.00;;;2.80;;
70929;SDS011;58588;48.102;19.682;2022-07-09T05:13:16;6.93;;;2.70;;
70929;SDS011;58588;48.102;19.682;2022-07-09T05:16:18;8.95;;;2.70;;
70929;SDS011;58588;48.102;19.682;2022-07-09T05:19:20;7.40;;;2.80;;
70929;SDS011;58588;48.102;19.682;2022-07-09T05:22:22;6.90;;;2.80;;
70929;SDS011;58588;48.102;19.682;2022-07-09T05:25:25;10.38;;;3.10;;
70929;SDS011;58588;48.102;19.682;2022-07-09T05:28:27;6.75;;;2.65;;
70929;SDS011;58588;48.102;19.682;2022-07-09T05:31:29;5.80;;;2.70;;
70929;SDS011;58588;48.102;19.682;2022-07-09T05:34:31;7.13;;;3.20;;
70929;SDS011;58588;48.102;19.682;2022-07-09T05:37:33;9.13;;;2.80;;
70929;SDS011;58588;48.102;19.682;2022-07-09T05:40:42;8.02;;;2.70;;
70929;SDS011;58588;48.102;19.682;2022-07-09T05:43:45;8.52;;;3.45;;
70929;SDS011;58588;48.102;19.682;2022-07-09T05:46:46;6.07;;;2.60;;
70929;SDS011;58588;48.102;19.682;2022-07-09T05:49:48;6.38;;;2.45;;
70929;SDS011;58588;48.102;19.682;2022-07-09T05:52:50;11.53;;;2.77;;
70929;SDS011;58588;48.102;19.682;2022-07-09T05:55:54;6.97;;;2.60;;
70929;SDS011;58588;48.102;19.682;2022-07-09T05:58:55;6.03;;;2.50;;
70929;SDS011;58588;48.102;19.682;2022-07-09T06:01:57;6.30;;;2.60;;
70929;SDS011;58588;48.102;19.682;2022-07-09T06:05:03;8.32;;;2.72;;
70929;SDS011;58588;48.102;19.682;2022-07-09T06:08:05;8.53;;;2.47;;
70929;SDS011;58588;48.102;19.682;2022-07-09T06:11:08;7.22;;;2.60;;
70929;SDS011;58588;48.102;19.682;2022-07-09T06:14:11;6.45;;;2.67;;
70929;SDS011;58588;48.102;19.682;2022-07-09T06:17:13;7.30;;;2.38;;
70929;SDS011;58588;48.102;19.682;2022-07-09T06:20:15;6.50;;;2.40;;
70929;SDS011;58588;48.102;19.682;2022-07-09T06:23:17;9.27;;;2.30;;
70929;SDS011;58588;48.102;19.682;2022-07-09T06:26:22;7.05;;;2.50;;
70929;SDS011;58588;48.102;19.682;2022-07-09T06:29:24;7.32;;;2.50;;
70929;SDS011;58588;48.102;19.682;2022-07-09T06:32:26;5.60;;;2.30;;
70929;SDS011;58588;48.102;19.682;2022-07-09T06:35:28;7.03;;;2.30;;
70929;SDS011;58588;48.102;19.682;2022-07-09T06:38:31;5.77;;;2.40;;
70929;SDS011;58588;48.102;19.682;2022-07-09T06:41:54;9.70;;;2.83;;
70929;SDS011;58588;48.102;19.682;2022-07-09T06:45:04;6.28;;;2.30;;
70929;SDS011;58588;48.102;19.682;2022-07-09T06:48:06;7.35;;;2.20;;
70929;SDS011;58588;48.102;19.682;2022-07-09T06:51:08;6.35;;;2.10;;
70929;SDS011;58588;48.102;19.682;2022-07-09T06:54:10;6.60;;;2.47;;
70929;SDS011;58588;48.102;19.682;2022-07-09T06:57:13;6.13;;;2.15;;
70929;SDS011;58588;48.102;19.682;2022-07-09T07:00:16;7.35;;;1.95;;
70929;SDS011;58588;48.102;19.682;2022-07-09T07:03:18;5.95;;;1.90;;
70929;SDS011;58588;48.102;19.682;2022-07-09T07:06:20;6.63;;;2.03;;
70929;SDS011;58588;48.102;19.682;2022-07-09T07:09:22;6.67;;;2.10;;
70929;SDS011;58588;48.102;19.682;2022-07-09T07:12:26;8.88;;;1.90;;
70929;SDS011;58588;48.102;19.682;2022-07-09T07:15:28;9.75;;;2.10;;
70929;SDS011;58588;48.102;19.682;2022-07-09T07:18:29;9.80;;;2.10;;
70929;SDS011;58588;48.102;19.682;2022-07-09T07:21:31;7.70;;;1.83;;
70929;SDS011;58588;48.102;19.682;2022-07-09T07:24:33;4.60;;;1.60;;
70929;SDS011;58588;48.102;19.682;2022-07-09T07:27:37;4.75;;;1.80;;
70929;SDS011;58588;48.102;19.682;2022-07-09T07:30:39;6.25;;;1.85;;
70929;SDS011;58588;48.102;19.682;2022-07-09T07:33:41;5.75;;;1.73;;
70929;SDS011;58588;48.102;19.682;2022-07-09T07:36:43;8.13;;;1.98;;
70929;SDS011;58588;48.102;19.682;2022-07-09T07:39:45;4.80;;;1.60;;
70929;SDS011;58588;48.102;19.682;2022-07-09T07:42:49;5.38;;;1.70;;
70929;SDS011;58588;48.102;19.682;2022-07-09T07:45:51;5.00;;;1.70;;
70929;SDS011;58588;48.102;19.682;2022-07-09T07:48:53;5.22;;;1.70;;
70929;SDS011;58588;48.102;19.682;2022-07-09T07:51:55;4.70;;;1.80;;
70929;SDS011;58588;48.102;19.682;2022-07-09T07:54:57;5.47;;;1.80;;
70929;SDS011;58588;48.102;19.682;2022-07-09T07:58:00;5.90;;;1.80;;
70929;SDS011;58588;48.102;19.682;2022-07-09T08:01:02;5.15;;;1.73;;
70929;SDS011;58588;48.102;19.682;2022-07-09T08:04:04;6.30;;;1.58;;
70929;SDS011;58588;48.102;19.682;2022-07-09T08:07:06;5.68;;;1.80;;
70929;SDS011;58588;48.102;19.682;2022-07-09T08:10:09;5.70;;;2.00;;
70929;SDS011;58588;48.102;19.682;2022-07-09T08:13:12;4.47;;;1.80;;
70929;SDS011;58588;48.102;19.682;2022-07-09T08:16:14;7.88;;;1.80;;
70929;SDS011;58588;48.102;19.682;2022-07-09T08:19:16;8.20;;;1.88;;
70929;SDS011;58588;48.102;19.682;2022-07-09T08:22:18;5.70;;;1.70;;
70929;SDS011;58588;48.102;19.682;2022-07-09T08:25:20;5.87;;;1.90;;
70929;SDS011;58588;48.102;19.682;2022-07-09T08:28:23;4.85;;;1.70;;
70929;SDS011;58588;48.102;19.682;2022-07-09T08:31:25;5.13;;;1.80;;
70929;SDS011;58588;48.102;19.682;2022-07-09T08:34:27;4.63;;;1.70;;
70929;SDS011;58588;48.102;19.682;2022-07-09T08:37:29;6.22;;;1.70;;
70929;SDS011;58588;48.102;19.682;2022-07-09T08:40:31;4.50;;;1.70;;
70929;SDS011;58588;48.102;19.682;2022-07-09T08:43:36;5.38;;;1.70;;
70929;SDS011;58588;48.102;19.682;2022-07-09T08:46:39;5.97;;;2.13;;
70929;SDS011;58588;48.102;19.682;2022-07-09T08:49:41;5.93;;;2.03;;
70929;SDS011;58588;48.102;19.682;2022-07-09T08:52:44;6.00;;;1.88;;
70929;SDS011;58588;48.102;19.682;2022-07-09T08:55:47;5.50;;;1.80;;
70929;SDS011;58588;48.102;19.682;2022-07-09T08:58:50;6.57;;;2.05;;
70929;SDS011;58588;48.102;19.682;2022-07-09T09:01:52;4.68;;;1.65;;
70929;SDS011;58588;48.102;19.682;2022-07-09T09:04:54;4.82;;;1.80;;
70929;SDS011;58588;48.102;19.682;2022-07-09T09:07:56;8.80;;;1.80;;
70929;SDS011;58588;48.102;19.682;2022-07-09T09:10:58;5.27;;;1.80;;
70929;SDS011;58588;48.102;19.682;2022-07-09T09:14:01;6.15;;;1.70;;
70929;SDS011;58588;48.102;19.682;2022-07-09T09:17:05;7.88;;;1.88;;
70929;SDS011;58588;48.102;19.682;2022-07-09T09:20:12;5.13;;;1.50;;
70929;SDS011;58588;48.102;19.682;2022-07-09T09:23:17;8.05;;;2.17;;
70929;SDS011;58588;48.102;19.682;2022-07-09T09:26:20;5.70;;;1.80;;
70929;SDS011;58588;48.102;19.682;2022-07-09T09:29:25;7.07;;;1.70;;
70929;SDS011;58588;48.102;19.682;2022-07-09T09:32:27;5.85;;;1.80;;
70929;SDS011;58588;48.102;19.682;2022-07-09T09:35:30;5.63;;;1.70;;
70929;SDS011;58588;48.102;19.682;2022-07-09T09:38:34;6.50;;;2.00;;
70929;SDS011;58588;48.102;19.682;2022-07-09T09:41:36;6.30;;;1.40;;
70929;SDS011;58588;48.102;19.682;2022-07-09T09:44:43;4.03;;;1.40;;
70929;SDS011;58588;48.102;19.682;2022-07-09T09:47:59;4.60;;;1.48;;
70929;SDS011;58588;48.102;19.682;2022-07-09T09:51:01;6.05;;;1.33;;
70929;SDS011;58588;48.102;19.682;2022-07-09T09:54:04;4.82;;;1.30;;
70929;SDS011;58588;48.102;19.682;2022-07-09T09:57:06;4.80;;;1.30;;
70929;SDS011;58588;48.102;19.682;2022-07-09T10:00:12;5.75;;;1.38;;
70929;SDS011;58588;48.102;19.682;2022-07-09T10:03:15;6.90;;;1.38;;
70929;SDS011;58588;48.102;19.682;2022-07-09T10:06:19;4.65;;;1.17;;
70929;SDS011;58588;48.102;19.682;2022-07-09T10:09:21;4.50;;;1.40;;
70929;SDS011;58588;48.102;19.682;2022-07-09T10:12:26;5.73;;;1.40;;
70929;SDS011;58588;48.102;19.682;2022-07-09T10:15:31;6.10;;;1.20;;
70929;SDS011;58588;48.102;19.682;2022-07-09T10:18:34;7.40;;;1.30;;
70929;SDS011;58588;48.102;19.682;2022-07-09T10:21:37;5.15;;;1.40;;
70929;SDS011;58588;48.102;19.682;2022-07-09T10:24:43;4.57;;;1.33;;
70929;SDS011;58588;48.102;19.682;2022-07-09T10:27:47;6.63;;;1.93;;
70929;SDS011;58588;48.102;19.682;2022-07-09T10:30:51;6.75;;;1.70;;
70929;SDS011;58588;48.102;19.682;2022-07-09T10:33:55;5.93;;;1.58;;
70929;SDS011;58588;48.102;19.682;2022-07-09T10:37:08;8.43;;;1.85;;
70929;SDS011;58588;48.102;19.682;2022-07-09T10:40:10;7.97;;;2.00;;
70929;SDS011;58588;48.102;19.682;2022-07-09T10:43:13;5.53;;;1.60;;
70929;SDS011;58588;48.102;19.682;2022-07-09T10:46:17;4.97;;;1.40;;
70929;SDS011;58588;48.102;19.682;2022-07-09T10:49:19;9.10;;;1.40;;
70929;SDS011;58588;48.102;19.682;2022-07-09T10:52:22;6.60;;;1.60;;
70929;SDS011;58588;48.102;19.682;2022-07-09T10:55:31;7.38;;;1.42;;
70929;SDS011;58588;48.102;19.682;2022-07-09T10:58:33;4.20;;;1.30;;
70929;SDS011;58588;48.102;19.682;2022-07-09T11:01:37;4.45;;;1.20;;
70929;SDS011;58588;48.102;19.682;2022-07-09T11:04:39;5.60;;;1.20;;
70929;SDS011;58588;48.102;19.682;2022-07-09T11:07:41;4.55;;;1.35;;
70929;SDS011;58588;48.102;19.682;2022-07-09T11:10:43;5.03;;;1.27;;
70929;SDS011;58588;48.102;19.682;2022-07-09T11:13:48;6.37;;;1.60;;
70929;SDS011;58588;48.102;19.682;2022-07-09T11:16:54;5.35;;;1.30;;
70929;SDS011;58588;48.102;19.682;2022-07-09T11:19:57;6.68;;;1.50;;
70929;SDS011;58588;48.102;19.682;2022-07-09T11:22:58;8.60;;;1.67;;
70929;SDS011;58588;48.102;19.682;2022-07-09T11:26:01;5.82;;;1.42;;
70929;SDS011;58588;48.102;19.682;2022-07-09T11:29:03;5.57;;;1.17;;
70929;SDS011;58588;48.102;19.682;2022-07-09T11:32:09;4.03;;;1.10;;
70929;SDS011;58588;48.102;19.682;2022-07-09T11:35:23;3.58;;;1.05;;
70929;SDS011;58588;48.102;19.682;2022-07-09T11:38:26;4.97;;;1.30;;
70929;SDS011;58588;48.102;19.682;2022-07-09T11:41:38;5.30;;;1.20;;
70929;SDS011;58588;48.102;19.682;2022-07-09T11:44:41;8.13;;;1.30;;
70929;SDS011;58588;48.102;19.682;2022-07-09T11:48:05;4.57;;;1.30;;
70929;SDS011;58588;48.102;19.682;2022-07-09T11:51:10;5.03;;;1.10;;
70929;SDS011;58588;48.102;19.682;2022-07-09T11:54:12;4.63;;;1.10;;
70929;SDS011;58588;48.102;19.682;2022-07-09T11:57:18;4.63;;;1.30;;
70929;SDS011;58588;48.102;19.682;2022-07-09T12:00:22;3.73;;;1.20;;
70929;SDS011;58588;48.102;19.682;2022-07-09T12:03:27;5.50;;;1.10;;
70929;SDS011;58588;48.102;19.682;2022-07-09T12:06:30;5.80;;;1.10;;
70929;SDS011;58588;48.102;19.682;2022-07-09T12:09:32;4.65;;;1.17;;
70929;SDS011;58588;48.102;19.682;2022-07-09T12:12:34;7.70;;;1.30;;
70929;SDS011;58588;48.102;19.682;2022-07-09T12:15:37;5.07;;;1.27;;
70929;SDS011;58588;48.102;19.682;2022-07-09T12:18:41;3.67;;;1.10;;
70929;SDS011;58588;48.102;19.682;2022-07-09T12:21:42;4.75;;;1.20;;
70929;SDS011;58588;48.102;19.682;2022-07-09T12:24:45;4.93;;;1.05;;
70929;SDS011;58588;48.102;19.682;2022-07-09T12:27:47;5.05;;;1.30;;
70929;SDS011;58588;48.102;19.682;2022-07-09T12:30:50;3.93;;;1.00;;
70929;SDS011;58588;48.102;19.682;2022-07-09T12:33:53;5.50;;;1.20;;
70929;SDS011;58588;48.102;19.682;2022-07-09T12:36:55;4.35;;;1.10;;
70929;SDS011;58588;48.102;19.682;2022-07-09T12:39:57;6.57;;;1.08;;
70929;SDS011;58588;48.102;19.682;2022-07-09T12:42:59;3.45;;;1.00;;
70929;SDS011;58588;48.102;19.682;2022-07-09T12:46:01;4.70;;;1.00;;
70929;SDS011;58588;48.102;19.682;2022-07-09T12:49:05;5.53;;;1.17;;
70929;SDS011;58588;48.102;19.682;2022-07-09T12:52:07;4.03;;;1.10;;
70929;SDS011;58588;48.102;19.682;2022-07-09T12:55:09;7.75;;;1.48;;
70929;SDS011;58588;48.102;19.682;2022-07-09T12:58:11;5.85;;;1.30;;
70929;SDS011;58588;48.102;19.682;2022-07-09T13:01:13;5.20;;;1.50;;
70929;SDS011;58588;48.102;19.682;2022-07-09T13:04:17;7.72;;;1.38;;
70929;SDS011;58588;48.102;19.682;2022-07-09T13:07:19;5.20;;;1.30;;
70929;SDS011;58588;48.102;19.682;2022-07-09T13:10:21;5.00;;;1.17;;
70929;SDS011;58588;48.102;19.682;2022-07-09T13:13:23;6.13;;;1.40;;
70929;SDS011;58588;48.102;19.682;2022-07-09T13:16:25;4.60;;;1.30;;
70929;SDS011;58588;48.102;19.682;2022-07-09T13:19:29;8.27;;;1.35;;
70929;SDS011;58588;48.102;19.682;2022-07-09T13:22:31;4.20;;;1.17;;
70929;SDS011;58588;48.102;19.682;2022-07-09T13:25:33;3.65;;;0.98;;
70929;SDS011;58588;48.102;19.682;2022-07-09T13:28:34;4.47;;;1.20;;
70929;SDS011;58588;48.102;19.682;2022-07-09T13:31:36;4.77;;;1.47;;
70929;SDS011;58588;48.102;19.682;2022-07-09T13:34:40;5.35;;;1.25;;
70929;SDS011;58588;48.102;19.682;2022-07-09T13:37:42;5.00;;;1.27;;
70929;SDS011;58588;48.102;19.682;2022-07-09T13:40:44;5.20;;;1.38;;
70929;SDS011;58588;48.102;19.682;2022-07-09T13:43:46;7.30;;;1.30;;
70929;SDS011;58588;48.102;19.682;2022-07-09T13:46:48;5.33;;;1.47;;
70929;SDS011;58588;48.102;19.682;2022-07-09T13:49:51;7.03;;;1.80;;
70929;SDS011;58588;48.102;19.682;2022-07-09T13:52:53;7.25;;;1.60;;
70929;SDS011;58588;48.102;19.682;2022-07-09T13:55:55;5.18;;;1.70;;
70929;SDS011;58588;48.102;19.682;2022-07-09T13:58:57;3.63;;;1.10;;
70929;SDS011;58588;48.102;19.682;2022-07-09T14:01:59;5.60;;;1.50;;
70929;SDS011;58588;48.102;19.682;2022-07-09T14:05:03;6.30;;;1.33;;
70929;SDS011;58588;48.102;19.682;2022-07-09T14:08:05;7.45;;;1.35;;
70929;SDS011;58588;48.102;19.682;2022-07-09T14:11:08;6.55;;;1.50;;
70929;SDS011;58588;48.102;19.682;2022-07-09T14:14:10;5.82;;;1.73;;
70929;SDS011;58588;48.102;19.682;2022-07-09T14:17:12;6.10;;;1.30;;
70929;SDS011;58588;48.102;19.682;2022-07-09T14:20:15;4.38;;;1.10;;
70929;SDS011;58588;48.102;19.682;2022-07-09T14:23:17;7.45;;;1.30;;
70929;SDS011;58588;48.102;19.682;2022-07-09T14:26:20;4.00;;;1.15;;
70929;SDS011;58588;48.102;19.682;2022-07-09T14:29:23;4.72;;;1.20;;
70929;SDS011;58588;48.102;19.682;2022-07-09T14:32:24;4.50;;;1.20;;
70929;SDS011;58588;48.102;19.682;2022-07-09T14:35:28;5.65;;;1.30;;
70929;SDS011;58588;48.102;19.682;2022-07-09T14:38:30;4.30;;;1.00;;
70929;SDS011;58588;48.102;19.682;2022-07-09T14:41:32;4.15;;;1.05;;
70929;SDS011;58588;48.102;19.682;2022-07-09T14:44:35;4.07;;;1.10;;
70929;SDS011;58588;48.102;19.682;2022-07-09T14:47:37;3.93;;;0.90;;
70929;SDS011;58588;48.102;19.682;2022-07-09T14:50:41;5.47;;;1.30;;
70929;SDS011;58588;48.102;19.682;2022-07-09T14:53:43;4.53;;;0.90;;
70929;SDS011;58588;48.102;19.682;2022-07-09T14:56:45;3.90;;;1.02;;
70929;SDS011;58588;48.102;19.682;2022-07-09T14:59:47;5.28;;;1.77;;
70929;SDS011;58588;48.102;19.682;2022-07-09T15:02:49;4.13;;;0.90;;
70929;SDS011;58588;48.102;19.682;2022-07-09T15:05:52;4.57;;;1.20;;
70929;SDS011;58588;48.102;19.682;2022-07-09T15:08:54;5.05;;;1.00;;
70929;SDS011;58588;48.102;19.682;2022-07-09T15:11:56;5.53;;;2.25;;
70929;SDS011;58588;48.102;19.682;2022-07-09T15:14:58;6.05;;;1.30;;
70929;SDS011;58588;48.102;19.682;2022-07-09T15:18:00;3.70;;;1.00;;
70929;SDS011;58588;48.102;19.682;2022-07-09T15:21:04;3.83;;;0.70;;
70929;SDS011;58588;48.102;19.682;2022-07-09T15:24:08;3.17;;;0.73;;
70929;SDS011;58588;48.102;19.682;2022-07-09T15:27:12;3.55;;;0.90;;
70929;SDS011;58588;48.102;19.682;2022-07-09T15:30:20;4.32;;;0.98;;
70929;SDS011;58588;48.102;19.682;2022-07-09T15:33:22;2.97;;;0.80;;
70929;SDS011;58588;48.102;19.682;2022-07-09T15:36:27;4.78;;;0.93;;
70929;SDS011;58588;48.102;19.682;2022-07-09T15:39:29;4.95;;;1.00;;
70929;SDS011;58588;48.102;19.682;2022-07-09T15:42:31;3.58;;;0.85;;
70929;SDS011;58588;48.102;19.682;2022-07-09T15:45:32;3.65;;;0.95;;
70929;SDS011;58588;48.102;19.682;2022-07-09T15:48:34;3.93;;;0.90;;
70929;SDS011;58588;48.102;19.682;2022-07-09T15:51:38;4.72;;;1.00;;
70929;SDS011;58588;48.102;19.682;2022-07-09T15:54:40;8.70;;;0.98;;
70929;SDS011;58588;48.102;19.682;2022-07-09T15:57:42;5.03;;;1.00;;
70929;SDS011;58588;48.102;19.682;2022-07-09T16:00:44;5.20;;;0.90;;
70929;SDS011;58588;48.102;19.682;2022-07-09T16:03:46;6.53;;;1.10;;
70929;SDS011;58588;48.102;19.682;2022-07-09T16:06:50;7.50;;;1.20;;
70929;SDS011;58588;48.102;19.682;2022-07-09T16:09:52;3.65;;;1.00;;
70929;SDS011;58588;48.102;19.682;2022-07-09T16:12:54;6.57;;;1.27;;
70929;SDS011;58588;48.102;19.682;2022-07-09T16:15:55;6.13;;;1.02;;
70929;SDS011;58588;48.102;19.682;2022-07-09T16:18:57;11.77;;;1.70;;
70929;SDS011;58588;48.102;19.682;2022-07-09T16:22:00;14.40;;;1.83;;
70929;SDS011;58588;48.102;19.682;2022-07-09T16:25:03;4.88;;;1.20;;
70929;SDS011;58588;48.102;19.682;2022-07-09T16:28:05;4.65;;;1.20;;
70929;SDS011;58588;48.102;19.682;2022-07-09T16:31:07;4.20;;;1.10;;
70929;SDS011;58588;48.102;19.682;2022-07-09T16:34:09;5.13;;;1.20;;
70929;SDS011;58588;48.102;19.682;2022-07-09T16:37:13;5.43;;;1.17;;
70929;SDS011;58588;48.102;19.682;2022-07-09T16:40:15;4.88;;;1.17;;
70929;SDS011;58588;48.102;19.682;2022-07-09T16:43:17;5.43;;;1.17;;
70929;SDS011;58588;48.102;19.682;2022-07-09T16:46:19;5.97;;;1.13;;
70929;SDS011;58588;48.102;19.682;2022-07-09T16:49:21;3.83;;;1.10;;
70929;SDS011;58588;48.102;19.682;2022-07-09T16:52:24;4.65;;;1.27;;
70929;SDS011;58588;48.102;19.682;2022-07-09T16:55:26;6.35;;;1.63;;
70929;SDS011;58588;48.102;19.682;2022-07-09T16:58:29;3.70;;;0.95;;
70929;SDS011;58588;48.102;19.682;2022-07-09T17:01:32;5.95;;;1.42;;
70929;SDS011;58588;48.102;19.682;2022-07-09T17:04:35;7.23;;;1.30;;
70929;SDS011;58588;48.102;19.682;2022-07-09T17:07:38;3.90;;;1.10;;
70929;SDS011;58588;48.102;19.682;2022-07-09T17:10:41;3.85;;;1.10;;
70929;SDS011;58588;48.102;19.682;2022-07-09T17:13:44;4.13;;;1.10;;
70929;SDS011;58588;48.102;19.682;2022-07-09T17:16:46;4.10;;;1.20;;
70929;SDS011;58588;48.102;19.682;2022-07-09T17:19:48;5.37;;;1.20;;
70929;SDS011;58588;48.102;19.682;2022-07-09T17:22:51;4.18;;;1.30;;
70929;SDS011;58588;48.102;19.682;2022-07-09T17:25:53;11.77;;;1.20;;
70929;SDS011;58588;48.102;19.682;2022-07-09T17:28:56;4.55;;;1.40;;
70929;SDS011;58588;48.102;19.682;2022-07-09T17:31:58;4.00;;;1.10;;
70929;SDS011;58588;48.102;19.682;2022-07-09T17:35:00;4.43;;;1.17;;
70929;SDS011;58588;48.102;19.682;2022-07-09T17:38:03;5.65;;;1.10;;
70929;SDS011;58588;48.102;19.682;2022-07-09T17:41:05;4.70;;;1.17;;
70929;SDS011;58588;48.102;19.682;2022-07-09T17:44:07;5.03;;;1.20;;
70929;SDS011;58588;48.102;19.682;2022-07-09T17:47:09;4.15;;;1.20;;
70929;SDS011;58588;48.102;19.682;2022-07-09T17:50:11;5.90;;;1.63;;
70929;SDS011;58588;48.102;19.682;2022-07-09T17:53:15;6.93;;;1.65;;
70929;SDS011;58588;48.102;19.682;2022-07-09T17:56:17;4.90;;;1.40;;
70929;SDS011;58588;48.102;19.682;2022-07-09T17:59:19;4.82;;;1.52;;
70929;SDS011;58588;48.102;19.682;2022-07-09T18:02:21;7.47;;;1.60;;